Terminal Aerodrome Forecast
Issued by NWS

Home | Current Version | Previous Version | Text Only | Print | Product List | Glossary On
Versions: 1 2 3 4 5 6 7 8 9 10 11 12 13 14 15 16 17 18 19 20
000
FTUS43 KDLH 271500 AAA
TAFBRD
TAF AMD
KBRD 271520Z 2715/2812 VRB03KT P6SM VCSH SCT090
      TEMPO 2715/2717 -SHRA
     FM271700 28007KT P6SM -SHRA SCT050 BKN070
     FM272000 30010G18KT P6SM -SHRA SCT050 OVC070
     FM280000 28006KT P6SM -SHRA BKN050=

USA.gov is the U.S. government's official web portal to all federal, state and local government web resources and services.